Time;durP1;ratioP1;P1;durP2;ratioP2;P2;SDS_P1;SDS_P2;PMS_P1;PMS_P2;Temp;Humidity;BMP_temperature;BMP_pressure;BME280_temperature;BME280_humidity;BME280_pressure;Samples;Min_cycle;Max_cycle;Signal;HPM_P1;HPM_P2
2022/07/23 00:00:33;;;;;;;5.55;2.55;;;15.30;99.90;;;;;;4980794;28;20084;-69
2022/07/23 00:02:59;;;;;;;4.10;2.30;;;15.30;99.90;;;;;;4983156;28;20034;-69
2022/07/23 00:05:25;;;;;;;4.25;2.20;;;15.20;99.90;;;;;;4977922;28;20377;-69
2022/07/23 00:07:50;;;;;;;4.07;2.30;;;15.20;99.90;;;;;;4972879;28;20518;-69
2022/07/23 00:10:16;;;;;;;3.85;2.00;;;15.20;99.90;;;;;;4983519;28;20041;-69
2022/07/23 00:12:44;;;;;;;4.57;2.20;;;15.10;99.90;;;;;;4976619;28;20654;-69
2022/07/23 00:15:10;;;;;;;5.28;2.17;;;15.10;99.90;;;;;;4977173;28;20030;-69
2022/07/23 00:17:36;;;;;;;4.03;2.22;;;15.00;99.90;;;;;;4976870;28;20050;-69
2022/07/23 00:20:02;;;;;;;5.03;2.30;;;15.00;99.90;;;;;;4977715;28;20042;-70
2022/07/23 00:22:29;;;;;;;;;;;15.00;99.90;;;;;;4982426;28;20038;-69
2022/07/23 00:24:55;;;;;;;4.35;2.30;;;15.00;99.90;;;;;;4981911;28;20019;-69
2022/07/23 00:27:21;;;;;;;5.15;1.90;;;14.90;99.90;;;;;;4981509;28;20050;-69
2022/07/23 00:29:47;;;;;;;3.47;2.35;;;14.90;99.90;;;;;;4983745;28;20121;-69
2022/07/23 00:32:12;;;;;;;6.25;2.10;;;15.00;99.90;;;;;;4973486;28;20169;-69
2022/07/23 00:34:38;;;;;;;3.45;1.98;;;15.00;99.90;;;;;;4981382;28;20535;-69
2022/07/23 00:37:04;;;;;;;4.35;1.92;;;14.90;99.90;;;;;;4983747;28;20062;-69
2022/07/23 00:39:29;;;;;;;3.45;2.10;;;14.90;99.90;;;;;;4978435;28;20170;-69
2022/07/23 00:41:55;;;;;;;4.95;2.40;;;15.00;99.90;;;;;;4982521;28;20067;-69
2022/07/23 00:44:23;;;;;;;6.10;2.42;;;15.00;99.90;;;;;;4979452;28;20042;-69
2022/07/23 00:46:55;;;;;;;4.35;2.38;;;15.00;99.90;;;;;;5046042;22;20054;-70
2022/07/23 00:49:29;;;;;;;4.22;2.15;;;15.00;99.90;;;;;;4972585;28;20106;-70
2022/07/23 00:51:56;;;;;;;3.55;2.25;;;15.00;99.90;;;;;;4956065;28;20034;-70
2022/07/23 00:54:26;;;;;;;6.85;2.25;;;14.90;99.90;;;;;;4972455;28;20038;-70
2022/07/23 00:56:52;;;;;;;3.53;1.83;;;15.00;99.90;;;;;;4977053;28;20026;-70
2022/07/23 00:59:18;;;;;;;;;;;15.00;99.90;;;;;;4970205;28;20111;-70
2022/07/23 01:01:45;;;;;;;4.10;2.22;;;15.00;99.90;;;;;;4974729;28;19933;-70
2022/07/23 01:04:15;;;;;;;5.82;1.88;;;14.90;99.90;;;;;;4973903;28;20041;-70
2022/07/23 01:06:41;;;;;;;4.45;2.10;;;14.90;99.90;;;;;;4961146;28;20096;-70
2022/07/23 01:09:07;;;;;;;3.25;1.80;;;14.80;99.90;;;;;;4951680;28;20038;-70
2022/07/23 01:11:35;;;;;;;3.80;1.95;;;14.90;99.90;;;;;;4977928;28;20065;-70
2022/07/23 01:14:12;;;;;;;4.05;2.05;;;14.80;99.90;;;;;;4980971;28;20068;-70
2022/07/23 01:16:37;;;;;;;8.85;2.80;;;14.70;99.90;;;;;;4979413;28;20053;-70
2022/07/23 01:19:06;;;;;;;4.70;2.25;;;14.80;99.90;;;;;;4981421;28;20114;-70
2022/07/23 01:21:40;;;;;;;7.95;1.90;;;14.60;99.90;;;;;;4980714;28;20086;-70
2022/07/23 01:24:07;;;;;;;4.30;2.15;;;14.70;99.90;;;;;;4978793;28;20046;-70
2022/07/23 01:26:33;;;;;;;5.53;2.20;;;14.70;99.90;;;;;;4980330;28;20042;-70
2022/07/23 01:28:59;;;;;;;5.78;2.35;;;14.80;99.90;;;;;;4978936;28;20491;-70
2022/07/23 01:31:25;;;;;;;3.60;2.10;;;14.70;99.90;;;;;;4979229;28;20065;-70
2022/07/23 01:33:51;;;;;;;5.85;2.45;;;14.70;99.90;;;;;;4980503;28;20161;-70
2022/07/23 01:36:16;;;;;;;3.08;1.85;;;14.70;99.90;;;;;;4982368;28;20038;-70
2022/07/23 01:38:42;;;;;;;3.65;2.35;;;14.60;99.90;;;;;;4978237;28;20042;-71
2022/07/23 01:41:08;;;;;;;5.07;2.25;;;14.60;99.90;;;;;;4978084;28;20145;-70
2022/07/23 01:43:34;;;;;;;6.85;1.92;;;14.60;99.90;;;;;;4976003;28;20047;-70
2022/07/23 01:45:59;;;;;;;4.35;2.15;;;14.60;99.90;;;;;;4980313;28;20064;-70
2022/07/23 01:48:25;;;;;;;3.20;2.05;;;14.60;99.90;;;;;;4976560;28;20487;-71
2022/07/23 01:50:51;;;;;;;4.82;1.85;;;14.50;99.90;;;;;;4965524;28;20054;-70
2022/07/23 01:53:17;;;;;;;5.68;2.40;;;14.50;99.90;;;;;;4976848;28;20049;-70
2022/07/23 01:55:43;;;;;;;4.38;2.00;;;14.50;99.90;;;;;;4982869;28;20054;-70
2022/07/23 01:58:08;;;;;;;5.57;2.10;;;14.50;99.90;;;;;;4984032;28;20046;-70
2022/07/23 02:00:34;;;;;;;3.95;2.13;;;14.50;99.90;;;;;;4984825;28;20090;-70
2022/07/23 02:03:00;;;;;;;4.47;2.05;;;14.50;99.90;;;;;;4984820;28;20081;-70
2022/07/23 02:05:28;;;;;;;4.10;1.92;;;14.50;99.90;;;;;;4987028;28;20054;-70
2022/07/23 02:07:54;;;;;;;3.58;1.92;;;14.40;99.90;;;;;;4978495;28;20117;-70
2022/07/23 02:10:21;;;;;;;3.95;2.00;;;14.40;99.90;;;;;;4982220;28;20100;-70
2022/07/23 02:12:47;;;;;;;3.88;2.25;;;14.30;99.90;;;;;;4987232;28;20114;-70
2022/07/23 02:15:13;;;;;;;3.50;2.00;;;14.30;99.90;;;;;;4985398;28;20433;-70
2022/07/23 02:17:40;;;;;;;4.47;2.35;;;14.30;99.90;;;;;;4981630;28;20051;-70
2022/07/23 02:20:07;;;;;;;5.20;2.30;;;14.30;99.90;;;;;;4983311;28;20120;-71
2022/07/23 02:22:33;;;;;;;6.93;2.95;;;14.30;99.90;;;;;;4974454;28;20042;-70
2022/07/23 02:24:59;;;;;;;4.00;2.10;;;14.20;99.90;;;;;;4977675;28;20443;-70
2022/07/23 02:27:25;;;;;;;4.68;2.15;;;14.20;99.90;;;;;;4978782;28;20062;-70
2022/07/23 02:29:50;;;;;;;5.97;2.35;;;14.10;99.90;;;;;;4983475;28;20283;-70
2022/07/23 02:32:16;;;;;;;5.68;2.65;;;14.10;99.90;;;;;;4981994;28;20046;-70
2022/07/23 02:34:42;;;;;;;5.45;2.72;;;14.00;99.90;;;;;;4981319;28;20600;-70
2022/07/23 02:37:08;;;;;;;3.80;2.20;;;14.00;99.90;;;;;;4980601;28;20185;-70
2022/07/23 02:39:35;;;;;;;4.45;2.20;;;14.00;99.90;;;;;;4979360;28;20038;-70
2022/07/23 02:42:01;;;;;;;4.32;2.47;;;14.00;99.90;;;;;;4983622;28;20336;-70
2022/07/23 02:44:27;;;;;;;4.57;2.65;;;14.00;99.90;;;;;;4979362;28;20197;-70
2022/07/23 02:46:53;;;;;;;5.63;2.20;;;14.00;99.90;;;;;;4981981;28;20266;-70
2022/07/23 02:49:18;;;;;;;3.85;2.03;;;14.00;99.90;;;;;;5003547;28;20963;-70
2022/07/23 02:51:44;;;;;;;6.70;2.42;;;14.00;99.90;;;;;;4984390;28;20038;-71
2022/07/23 02:54:10;;;;;;;6.90;2.42;;;13.90;99.90;;;;;;4967654;28;20042;-70
2022/07/23 02:56:36;;;;;;;4.82;2.50;;;13.90;99.90;;;;;;4982168;28;20058;-70
2022/07/23 02:59:02;;;;;;;4.43;2.60;;;13.90;99.90;;;;;;4976040;28;20042;-70
2022/07/23 03:01:27;;;;;;;4.88;2.53;;;13.90;99.90;;;;;;4974716;28;20343;-70
2022/07/23 03:03:53;;;;;;;5.47;2.88;;;13.90;99.90;;;;;;4984857;28;20061;-70
2022/07/23 03:06:19;;;;;;;7.18;3.17;;;13.90;99.90;;;;;;4980381;28;20086;-70
2022/07/23 03:08:45;;;;;;;5.07;2.78;;;13.90;99.90;;;;;;4984877;28;20054;-70
2022/07/23 03:11:11;;;;;;;5.70;2.83;;;13.90;99.90;;;;;;4977631;28;20620;-70
2022/07/23 03:13:38;;;;;;;3.50;2.05;;;13.90;99.90;;;;;;4981242;28;20118;-70
2022/07/23 03:16:04;;;;;;;5.15;2.70;;;13.90;99.90;;;;;;4982561;28;20053;-70
2022/07/23 03:18:30;;;;;;;;;;;13.90;99.90;;;;;;4980652;28;20096;-70
2022/07/23 03:20:56;;;;;;;5.22;2.30;;;13.90;99.90;;;;;;4981855;28;20282;-70
2022/07/23 03:23:21;;;;;;;6.38;2.63;;;13.80;99.90;;;;;;4969637;28;20042;-69
2022/07/23 03:25:50;;;;;;;4.00;2.47;;;13.80;99.90;;;;;;4976906;28;20069;-69
2022/07/23 03:28:17;;;;;;;3.67;2.58;;;13.90;99.90;;;;;;4970093;28;20077;-69
2022/07/23 03:30:46;;;;;;;4.78;2.70;;;13.80;99.90;;;;;;4980113;28;20042;-70
2022/07/23 03:33:13;;;;;;;6.75;2.83;;;13.80;99.90;;;;;;4982175;28;20130;-69
2022/07/23 03:35:39;;;;;;;3.45;2.35;;;13.80;99.90;;;;;;4981402;28;20050;-69
2022/07/23 03:38:05;;;;;;;6.75;2.70;;;13.80;99.90;;;;;;4977588;28;20099;-70
2022/07/23 03:40:31;;;;;;;5.53;2.90;;;13.80;99.90;;;;;;4981645;28;20415;-69
2022/07/23 03:42:57;;;;;;;3.95;2.15;;;13.80;99.90;;;;;;4981541;28;20057;-69
2022/07/23 03:45:23;;;;;;;4.45;2.42;;;13.80;99.90;;;;;;4983860;28;20077;-70
2022/07/23 03:47:49;;;;;;;4.60;2.80;;;13.80;99.90;;;;;;4983783;28;20131;-69
2022/07/23 03:50:14;;;;;;;4.57;2.50;;;13.80;99.90;;;;;;4982470;28;20053;-70
2022/07/23 03:52:40;;;;;;;3.70;2.40;;;13.80;99.90;;;;;;4978580;28;20089;-69
2022/07/23 03:55:07;;;;;;;4.03;2.35;;;13.80;99.90;;;;;;4982744;28;20049;-69
2022/07/23 03:57:33;;;;;;;4.55;2.55;;;13.80;99.90;;;;;;4978340;28;20049;-69
2022/07/23 03:59:58;;;;;;;4.78;2.53;;;13.70;99.90;;;;;;4982524;28;20050;-69
2022/07/23 04:02:24;;;;;;;5.97;2.85;;;13.80;99.90;;;;;;4982593;28;20034;-69
2022/07/23 04:04:50;;;;;;;4.53;2.45;;;13.70;99.90;;;;;;4976225;28;20092;-69
2022/07/23 04:07:17;;;;;;;5.60;2.42;;;13.70;99.90;;;;;;4976137;28;20054;-69
2022/07/23 04:09:44;;;;;;;5.82;2.75;;;13.70;99.90;;;;;;4984298;28;21439;-69
2022/07/23 04:12:10;;;;;;;5.18;2.47;;;13.80;99.90;;;;;;4966292;28;20104;-69
2022/07/23 04:14:35;;;;;;;8.23;2.50;;;13.80;99.90;;;;;;4982225;28;21739;-69
2022/07/23 04:17:02;;;;;;;5.57;2.83;;;13.70;99.90;;;;;;4983630;28;20119;-70
2022/07/23 04:19:27;;;;;;;4.00;2.17;;;13.80;99.90;;;;;;4985476;28;20224;-70
2022/07/23 04:21:53;;;;;;;4.97;2.72;;;13.80;99.90;;;;;;4973420;28;20121;-70
2022/07/23 04:24:19;;;;;;;9.73;2.63;;;13.80;99.90;;;;;;4972944;28;20098;-70
2022/07/23 04:26:45;;;;;;;4.95;2.45;;;13.80;99.90;;;;;;4974353;28;20039;-70
2022/07/23 04:29:11;;;;;;;5.53;2.42;;;13.80;99.90;;;;;;4982522;28;20117;-70
2022/07/23 04:31:36;;;;;;;6.22;2.35;;;13.80;99.90;;;;;;4978544;28;20125;-70
2022/07/23 04:34:02;;;;;;;5.50;2.67;;;13.80;99.90;;;;;;4983111;28;20244;-69
2022/07/23 04:36:28;;;;;;;3.97;2.35;;;13.80;99.90;;;;;;4979323;28;20459;-70
2022/07/23 04:38:54;;;;;;;7.30;3.03;;;13.80;99.90;;;;;;4982259;28;20037;-70
2022/07/23 04:41:20;;;;;;;;;;;13.80;99.90;;;;;;4981564;28;20039;-70
2022/07/23 04:43:46;;;;;;;8.73;2.85;;;13.80;99.90;;;;;;4980442;28;19926;-70
2022/07/23 04:46:12;;;;;;;5.55;2.78;;;13.80;99.90;;;;;;4982685;28;20252;-70
2022/07/23 04:48:42;;;;;;;5.63;3.30;;;13.90;99.90;;;;;;4982126;28;20348;-70
2022/07/23 04:51:07;;;;;;;8.18;3.40;;;13.80;99.90;;;;;;4980587;28;20185;-70
2022/07/23 04:53:33;;;;;;;5.53;3.00;;;13.90;99.90;;;;;;4983428;28;20141;-70
2022/07/23 04:55:59;;;;;;;4.47;2.53;;;13.90;99.90;;;;;;4982032;28;20542;-70
2022/07/23 04:58:25;;;;;;;5.78;2.90;;;13.90;99.90;;;;;;4977779;28;20066;-70
2022/07/23 05:00:51;;;;;;;8.20;3.00;;;13.80;99.90;;;;;;4962402;28;20078;-70
2022/07/23 05:03:17;;;;;;;4.85;3.03;;;13.80;99.90;;;;;;4977636;28;20050;-70
2022/07/23 05:05:42;;;;;;;5.60;2.80;;;13.90;99.90;;;;;;4982282;28;20555;-70
2022/07/23 05:08:08;;;;;;;8.25;3.10;;;13.90;99.90;;;;;;4981075;28;20158;-70
2022/07/23 05:10:34;;;;;;;4.32;2.47;;;13.90;99.90;;;;;;4980370;28;20054;-69
2022/07/23 05:13:00;;;;;;;4.63;2.50;;;13.90;99.90;;;;;;4980478;28;20142;-69
2022/07/23 05:15:26;;;;;;;4.72;2.70;;;14.00;99.90;;;;;;4975755;28;20046;-70
2022/07/23 05:17:51;;;;;;;5.00;2.80;;;14.00;99.90;;;;;;4981747;28;20585;-70
2022/07/23 05:20:17;;;;;;;3.25;1.98;;;14.00;99.90;;;;;;4979793;28;20105;-70
2022/07/23 05:22:43;;;;;;;3.22;2.10;;;14.00;99.90;;;;;;4972884;28;20046;-70
2022/07/23 05:25:09;;;;;;;4.05;2.50;;;14.10;99.90;;;;;;4963446;28;20038;-70
2022/07/23 05:27:35;;;;;;;5.25;2.17;;;14.10;99.90;;;;;;4980039;28;20120;-70
2022/07/23 05:30:01;;;;;;;5.13;2.85;;;14.20;99.90;;;;;;4988155;28;20360;-70
2022/07/23 05:32:26;;;;;;;4.03;2.20;;;14.10;99.90;;;;;;4982008;28;20050;-70
2022/07/23 05:34:52;;;;;;;6.55;2.80;;;14.20;99.90;;;;;;4983688;28;20057;-70
2022/07/23 05:37:18;;;;;;;7.65;2.33;;;14.30;99.90;;;;;;4980062;28;20403;-70
2022/07/23 05:39:43;;;;;;;5.03;2.42;;;14.30;99.90;;;;;;4990307;28;20042;-70
2022/07/23 05:42:09;;;;;;;4.03;2.10;;;14.30;99.90;;;;;;4981499;28;20132;-70
2022/07/23 05:44:35;;;;;;;5.50;2.33;;;14.40;99.90;;;;;;4987579;28;20045;-70
2022/07/23 05:47:01;;;;;;;4.40;2.00;;;14.50;99.90;;;;;;4986340;28;20489;-70
2022/07/23 05:49:27;;;;;;;;;;;14.50;99.90;;;;;;4982274;28;20073;-70
2022/07/23 05:51:52;;;;;;;3.05;1.70;;;14.50;99.90;;;;;;4984102;28;20023;-70
2022/07/23 05:54:18;;;;;;;3.23;1.03;;;14.60;99.90;;;;;;4980589;28;20217;-70
2022/07/23 05:56:44;;;;;;;3.13;1.10;;;14.70;99.90;;;;;;4983693;28;20038;-70
2022/07/23 05:59:11;;;;;;;2.17;1.08;;;14.80;99.90;;;;;;4969426;28;20042;-69
2022/07/23 06:01:37;;;;;;;5.90;1.38;;;14.80;99.90;;;;;;4987188;28;20125;-69
2022/07/23 06:04:03;;;;;;;2.03;1.08;;;14.90;99.90;;;;;;4980868;28;20068;-70
2022/07/23 06:06:29;;;;;;;1.65;0.90;;;14.90;99.90;;;;;;4984445;28;20058;-70
2022/07/23 06:08:54;;;;;;;3.30;0.90;;;15.00;99.90;;;;;;4987326;28;20045;-70
2022/07/23 06:11:20;;;;;;;5.40;1.20;;;15.00;99.90;;;;;;4987230;28;20121;-70
2022/07/23 06:13:46;;;;;;;1.30;0.80;;;15.10;99.90;;;;;;4988718;28;20176;-70
2022/07/23 06:16:14;;;;;;;1.95;1.00;;;15.10;99.90;;;;;;4983004;28;20503;-70
2022/07/23 06:18:40;;;;;;;2.47;1.00;;;15.10;99.90;;;;;;4984889;28;20056;-71
2022/07/23 06:21:06;;;;;;;1.17;0.80;;;15.20;99.90;;;;;;4969237;28;20073;-70
2022/07/23 06:23:32;;;;;;;3.97;0.95;;;15.30;99.90;;;;;;4985145;28;20531;-70
2022/07/23 06:25:57;;;;;;;1.10;0.47;;;15.30;99.90;;;;;;4985906;28;20537;-71
2022/07/23 06:28:23;;;;;;;1.95;0.75;;;15.40;99.90;;;;;;4987673;28;20030;-70
2022/07/23 06:30:49;;;;;;;1.38;0.80;;;15.40;99.90;;;;;;4984416;28;20467;-70
2022/07/23 06:33:14;;;;;;;4.93;0.70;;;15.40;99.90;;;;;;4986260;28;20181;-70
2022/07/23 06:35:40;;;;;;;2.13;0.70;;;15.50;99.90;;;;;;4986771;28;20100;-70
2022/07/23 06:38:06;;;;;;;1.13;0.60;;;15.60;99.90;;;;;;4985611;28;20150;-70
2022/07/23 06:40:32;;;;;;;2.75;0.60;;;15.60;99.90;;;;;;4986203;28;20141;-70
2022/07/23 06:42:58;;;;;;;1.50;0.50;;;15.70;99.90;;;;;;4987359;28;20041;-71
2022/07/23 06:45:36;;;;;;;1.88;0.73;;;15.80;99.90;;;;;;5009117;22;20500;-86
2022/07/23 06:48:11;;;;;;;1.20;0.63;;;15.80;99.90;;;;;;4990197;28;20042;-86
2022/07/23 06:50:42;;;;;;;1.08;0.50;;;15.90;99.90;;;;;;4992486;28;20034;-87
2022/07/23 06:53:13;;;;;;;1.33;0.43;;;15.90;99.90;;;;;;5010888;23;20070;-70
2022/07/23 06:55:39;;;;;;;2.28;0.60;;;16.00;99.90;;;;;;5029695;28;20137;-70
2022/07/23 06:58:05;;;;;;;1.73;0.50;;;16.10;99.90;;;;;;5029826;28;20041;-70
2022/07/23 07:00:34;;;;;;;1.00;0.40;;;16.10;99.90;;;;;;5019742;28;20364;-70
2022/07/23 07:03:00;;;;;;;0.65;0.20;;;16.10;99.90;;;;;;5024171;28;20413;-70
2022/07/23 07:05:27;;;;;;;2.53;0.35;;;16.20;99.90;;;;;;5020984;28;20565;-71
2022/07/23 07:07:56;;;;;;;2.25;0.40;;;16.20;99.90;;;;;;5021617;28;20029;-70
2022/07/23 07:10:22;;;;;;;0.90;0.28;;;16.30;99.90;;;;;;5023465;28;20038;-70
2022/07/23 07:12:48;;;;;;;0.55;0.30;;;16.30;99.90;;;;;;5023949;28;21037;-70
2022/07/23 07:15:14;;;;;;;1.30;0.40;;;16.40;99.90;;;;;;5022426;28;20041;-70
2022/07/23 07:17:40;;;;;;;0.32;0.20;;;16.40;99.90;;;;;;5023654;28;20535;-70
2022/07/23 07:20:06;;;;;;;1.65;0.57;;;16.50;99.90;;;;;;5023847;28;20826;-70
2022/07/23 07:22:32;;;;;;;;;;;16.50;99.90;;;;;;5024311;28;20049;-70
2022/07/23 07:24:57;;;;;;;0.30;0.20;;;16.60;99.90;;;;;;5019287;28;19974;-70
2022/07/23 07:27:23;;;;;;;0.82;0.30;;;16.70;99.90;;;;;;5025597;28;20048;-70
2022/07/23 07:29:49;;;;;;;0.35;0.17;;;16.80;99.90;;;;;;5020811;28;20481;-70
2022/07/23 07:32:14;;;;;;;0.52;0.20;;;16.90;99.90;;;;;;5017092;28;20033;-70
2022/07/23 07:34:40;;;;;;;1.33;0.20;;;16.90;99.90;;;;;;5022898;28;20053;-70
2022/07/23 07:37:05;;;;;;;0.38;0.20;;;17.00;99.90;;;;;;5015995;28;20038;-71
2022/07/23 07:39:31;;;;;;;1.02;0.25;;;17.10;99.90;;;;;;5018346;28;20037;-70
2022/07/23 07:41:57;;;;;;;0.68;0.20;;;17.10;99.90;;;;;;5023666;28;20073;-70
2022/07/23 07:44:22;;;;;;;1.52;0.50;;;17.20;99.90;;;;;;5024828;28;20095;-71
2022/07/23 07:46:48;;;;;;;0.73;0.32;;;17.20;99.90;;;;;;5022269;28;20554;-71
2022/07/23 07:49:14;;;;;;;0.70;0.30;;;17.30;99.90;;;;;;5020797;28;20057;-69
2022/07/23 07:51:39;;;;;;;0.30;0.30;;;17.30;99.90;;;;;;5015897;28;20045;-69
2022/07/23 07:54:05;;;;;;;1.65;0.47;;;17.40;99.90;;;;;;5017372;28;20117;-69
2022/07/23 07:56:31;;;;;;;0.30;0.17;;;17.40;99.90;;;;;;5024333;28;20029;-68
2022/07/23 07:58:57;;;;;;;0.40;0.22;;;17.40;99.90;;;;;;5002388;28;20188;-69
2022/07/23 08:01:22;;;;;;;0.95;0.30;;;17.40;99.90;;;;;;5020662;28;20460;-69
2022/07/23 08:03:48;;;;;;;0.70;0.20;;;17.50;99.90;;;;;;5000752;28;20045;-69
2022/07/23 08:06:14;;;;;;;1.67;0.63;;;17.50;99.90;;;;;;5020937;28;20033;-69
2022/07/23 08:08:39;;;;;;;1.02;0.65;;;17.50;99.90;;;;;;5019513;28;20041;-69
2022/07/23 08:11:05;;;;;;;0.85;0.30;;;17.60;99.90;;;;;;5022440;28;20037;-69
2022/07/23 08:13:31;;;;;;;0.30;0.20;;;17.60;99.90;;;;;;5018780;28;20052;-69
2022/07/23 08:15:56;;;;;;;1.42;0.30;;;17.60;99.90;;;;;;5021426;28;20413;-69
2022/07/23 08:18:22;;;;;;;1.90;0.30;;;17.60;99.90;;;;;;5021749;28;20494;-69
2022/07/23 08:20:48;;;;;;;0.40;0.17;;;17.60;99.90;;;;;;5015002;28;20041;-69
2022/07/23 08:23:13;;;;;;;1.63;0.30;;;17.60;99.90;;;;;;5019681;28;20087;-69
2022/07/23 08:25:42;;;;;;;0.75;0.40;;;17.60;99.90;;;;;;5022537;28;20042;-69
2022/07/23 08:28:10;;;;;;;1.48;0.30;;;17.70;99.90;;;;;;5021913;28;20116;-69
2022/07/23 08:30:37;;;;;;;0.88;0.35;;;17.70;99.90;;;;;;5018237;28;20137;-69
2022/07/23 08:33:07;;;;;;;0.88;0.30;;;17.70;99.90;;;;;;5017255;28;20556;-69
2022/07/23 08:35:37;;;;;;;0.70;0.38;;;17.80;99.90;;;;;;5019954;28;20033;-69
2022/07/23 08:38:06;;;;;;;1.55;0.32;;;17.80;99.90;;;;;;5021455;28;20493;-69
2022/07/23 08:40:36;;;;;;;0.30;0.20;;;17.80;99.90;;;;;;5020948;28;20095;-69
2022/07/23 08:43:06;;;;;;;0.65;0.28;;;17.90;99.90;;;;;;5020429;28;20124;-69
2022/07/23 08:45:36;;;;;;;1.33;0.35;;;17.90;99.90;;;;;;5017896;28;20049;-69
2022/07/23 08:48:04;;;;;;;0.30;0.13;;;17.90;99.90;;;;;;5022826;28;20052;-69
2022/07/23 08:50:32;;;;;;;1.25;0.20;;;17.90;99.90;;;;;;5014186;28;20106;-69
2022/07/23 08:53:00;;;;;;;0.35;0.22;;;17.90;99.90;;;;;;5017012;28;20041;-69
2022/07/23 08:55:25;;;;;;;0.85;0.30;;;17.80;99.90;;;;;;5012343;28;20241;-68
2022/07/23 08:57:53;;;;;;;0.88;0.30;;;17.80;99.90;;;;;;5023202;28;20041;-69
2022/07/23 09:00:20;;;;;;;0.63;0.30;;;17.90;99.90;;;;;;5001591;28;20124;-69
2022/07/23 09:02:47;;;;;;;0.45;0.30;;;17.80;99.90;;;;;;5021173;28;20042;-69
2022/07/23 09:05:14;;;;;;;1.33;0.20;;;17.80;99.90;;;;;;5009987;28;20038;-69
2022/07/23 09:08:05;;;;;;;1.13;0.30;;;17.80;99.90;;;;;;5024794;28;20490;-69
2022/07/23 09:10:54;;;;;;;0.98;0.30;;;17.90;99.90;;;;;;5015125;28;20049;-68
2022/07/23 09:13:29;;;;;;;2.13;0.30;;;17.80;99.90;;;;;;5021971;28;20052;-69
2022/07/23 09:16:13;;;;;;;1.35;0.40;;;17.90;99.90;;;;;;5025775;28;20714;-69
2022/07/23 09:18:45;;;;;;;0.32;0.20;;;17.90;99.90;;;;;;5020811;28;20346;-69
2022/07/23 09:21:28;;;;;;;1.40;0.60;;;18.00;99.90;;;;;;5020940;28;20170;-69
2022/07/23 09:23:55;;;;;;;0.65;0.30;;;18.00;99.90;;;;;;5025114;28;20042;-69
2022/07/23 09:26:31;;;;;;;0.75;0.40;;;18.00;99.90;;;;;;5026610;28;20718;-70
2022/07/23 09:29:03;;;;;;;0.95;0.50;;;18.10;99.90;;;;;;5019678;28;20518;-69
2022/07/23 09:31:54;;;;;;;0.65;0.30;;;18.10;99.90;;;;;;5023944;28;21284;-69
2022/07/23 09:34:24;;;;;;;3.03;0.40;;;18.20;99.90;;;;;;5010303;28;20061;-69
2022/07/23 09:36:52;;;;;;;2.17;0.40;;;18.20;99.90;;;;;;5026031;28;20041;-71
2022/07/23 09:39:30;;;;;;;2.20;0.43;;;18.30;99.90;;;;;;5017370;28;20196;-71
2022/07/23 09:41:57;;;;;;;1.30;0.60;;;18.30;99.90;;;;;;5020341;28;20060;-71
2022/07/23 09:44:23;;;;;;;1.38;0.50;;;18.40;99.90;;;;;;5019625;28;20049;-71
2022/07/23 09:46:56;;;;;;;1.70;0.43;;;18.50;99.90;;;;;;5026595;28;20621;-71
2022/07/23 09:49:23;;;;;;;2.78;0.50;;;18.60;99.90;;;;;;5014233;28;20038;-69
2022/07/23 09:51:57;;;;;;;3.13;0.50;;;18.60;99.90;;;;;;5023611;28;20064;-69
2022/07/23 09:54:34;;;;;;;0.90;0.30;;;18.70;99.90;;;;;;5022611;28;20139;-69
2022/07/23 09:57:06;;;;;;;0.70;0.40;;;18.70;99.90;;;;;;5020716;28;20112;-68
2022/07/23 09:59:35;;;;;;;1.17;0.30;;;18.80;99.90;;;;;;5022910;28;20060;-68
2022/07/23 10:02:01;;;;;;;0.52;0.38;;;18.70;99.90;;;;;;5021561;28;20037;-69
2022/07/23 10:04:29;;;;;;;0.95;0.40;;;18.70;99.90;;;;;;5024914;28;20518;-69
2022/07/23 10:06:57;;;;;;;0.50;0.40;;;18.70;99.90;;;;;;5026059;28;20326;-68
2022/07/23 10:09:29;;;;;;;1.20;0.45;;;18.70;99.90;;;;;;5017911;28;20038;-68
2022/07/23 10:12:21;;;;;;;1.80;0.57;;;18.90;99.90;;;;;;5021849;28;20038;-69
2022/07/23 10:14:43;;;;;;;2.35;0.60;;;19.00;99.90;;;;;;5018780;28;20114;-69
2022/07/23 10:17:09;;;;;;;;;;;19.00;99.90;;;;;;5020948;28;20051;-68
2022/07/23 10:19:35;;;;;;;1.98;0.73;;;19.00;99.90;;;;;;5007025;28;19950;-69
2022/07/23 10:22:02;;;;;;;;;;;19.00;99.90;;;;;;5015787;28;20398;-68
2022/07/23 10:24:53;;;;;;;1.48;0.60;;;19.10;99.90;;;;;;5026548;28;20010;-68
2022/07/23 10:27:43;;;;;;;1.08;0.57;;;19.00;99.90;;;;;;5023962;28;20045;-69
2022/07/23 10:30:27;;;;;;;0.75;0.40;;;19.00;99.90;;;;;;5022002;28;20080;-69
2022/07/23 10:33:20;;;;;;;2.03;0.80;;;18.90;99.90;;;;;;5004108;28;20048;-69
2022/07/23 10:35:55;;;;;;;3.05;0.70;;;18.80;99.90;;;;;;5018737;28;20498;-69
2022/07/23 10:38:41;;;;;;;1.45;0.50;;;18.80;99.90;;;;;;5021462;28;20065;-69
2022/07/23 10:41:07;;;;;;;1.00;0.35;;;18.80;99.90;;;;;;5022108;28;20037;-69
2022/07/23 10:43:32;;;;;;;;;;;18.90;99.90;;;;;;5019764;28;20053;-72
2022/07/23 10:46:25;;;;;;;1.40;0.40;;;19.10;99.90;;;;;;5023602;28;19925;-72
2022/07/23 10:49:22;;;;;;;1.98;0.35;;;19.40;99.90;;;;;;5025819;28;20045;-71
2022/07/23 10:52:17;;;;;;;0.88;0.60;;;19.50;99.90;;;;;;5025010;28;20270;-71
2022/07/23 10:55:09;;;;;;;2.25;0.93;;;19.50;99.90;;;;;;5022632;28;20049;-71
2022/07/23 10:57:48;;;;;;;1.65;0.88;;;19.40;99.90;;;;;;5005166;28;20058;-71
2022/07/23 11:00:16;;;;;;;1.13;0.70;;;19.30;99.90;;;;;;5026802;28;20140;-71
2022/07/23 11:02:46;;;;;;;1.38;0.60;;;19.20;99.90;;;;;;5022168;28;20065;-71
2022/07/23 11:05:21;;;;;;;5.40;0.90;;;19.30;99.90;;;;;;5023828;28;20041;-71
2022/07/23 11:08:06;;;;;;;1.85;0.82;;;19.50;99.90;;;;;;5008815;28;20226;-71
2022/07/23 11:11:00;;;;;;;2.05;0.70;;;19.60;99.90;;;;;;5030678;28;20037;-71
2022/07/23 11:13:32;;;;;;;1.05;0.70;;;19.70;99.90;;;;;;5020086;28;20438;-71
2022/07/23 11:16:00;;;;;;;1.45;0.60;;;19.80;99.90;;;;;;5023297;28;20180;-72
2022/07/23 11:18:44;;;;;;;3.10;0.70;;;19.80;99.90;;;;;;5018459;28;20041;-70
2022/07/23 11:21:31;;;;;;;1.70;0.80;;;19.80;99.90;;;;;;5007880;28;20204;-71
2022/07/23 11:24:00;;;;;;;2.55;0.63;;;19.80;99.90;;;;;;5027337;28;20092;-71
2022/07/23 11:26:41;;;;;;;1.02;0.70;;;19.80;99.90;;;;;;5024659;28;20160;-71
2022/07/23 11:29:27;;;;;;;1.42;0.60;;;19.90;99.90;;;;;;5023822;28;20045;-71
2022/07/23 11:32:17;;;;;;;1.20;0.60;;;19.90;99.90;;;;;;5029613;28;20441;-71
2022/07/23 11:34:48;;;;;;;1.50;0.70;;;19.90;99.90;;;;;;5025243;28;20058;-70
2022/07/23 11:37:34;;;;;;;2.13;0.90;;;19.90;99.90;;;;;;5024478;28;20037;-70
2022/07/23 11:40:02;;;;;;;0.80;0.60;;;19.90;99.90;;;;;;5022797;28;20045;-70
2022/07/23 11:42:28;;;;;;;1.38;0.60;;;19.90;99.90;;;;;;5023714;28;20482;-71
2022/07/23 11:44:54;;;;;;;2.42;0.98;;;19.80;99.90;;;;;;5023442;28;20052;-70
2022/07/23 11:47:25;;;;;;;0.90;0.45;;;19.90;99.90;;;;;;5020012;28;20033;-70
2022/07/23 11:50:02;;;;;;;2.22;1.15;;;19.80;99.90;;;;;;5023155;28;20351;-72
2022/07/23 11:52:29;;;;;;;1.05;0.65;;;19.90;99.90;;;;;;5018899;28;20049;-70
2022/07/23 11:55:11;;;;;;;1.60;0.82;;;19.90;99.90;;;;;;5023001;28;20048;-70
2022/07/23 11:57:40;;;;;;;3.03;0.90;;;20.00;99.90;;;;;;5019169;28;20047;-72
2022/07/23 12:00:12;;;;;;;1.23;0.70;;;20.10;99.90;;;;;;5019356;28;20075;-72
2022/07/23 12:02:43;;;;;;;1.60;0.90;;;20.20;99.90;;;;;;5004948;28;20042;-73
2022/07/23 12:05:13;;;;;;;2.28;0.82;;;20.40;99.90;;;;;;5015941;28;20029;-73
2022/07/23 12:07:44;;;;;;;3.92;1.00;;;20.60;99.90;;;;;;5010735;28;20041;-73
2022/07/23 12:10:15;;;;;;;1.63;0.90;;;20.70;99.90;;;;;;5018955;28;20043;-73
2022/07/23 12:12:49;;;;;;;3.20;1.15;;;20.80;99.90;;;;;;5015088;28;20552;-73
2022/07/23 12:15:15;;;;;;;2.05;0.70;;;20.80;99.90;;;;;;5016237;28;20045;-73
2022/07/23 12:17:44;;;;;;;2.13;0.73;;;20.90;99.90;;;;;;5015591;28;20398;-74
2022/07/23 12:20:15;;;;;;;1.15;0.68;;;20.90;99.90;;;;;;5023529;28;20045;-73
2022/07/23 12:22:45;;;;;;;1.75;0.90;;;21.10;99.90;;;;;;5004815;28;20053;-73
2022/07/23 12:25:16;;;;;;;1.40;0.70;;;21.20;99.90;;;;;;5023660;28;20038;-73
2022/07/23 12:27:43;;;;;;;2.22;0.85;;;21.30;99.90;;;;;;5021160;28;20456;-74
2022/07/23 12:30:21;;;;;;;1.20;0.70;;;21.40;99.90;;;;;;5019983;28;20109;-73
2022/07/23 12:32:49;;;;;;;1.17;0.60;;;21.60;99.90;;;;;;5014128;28;20069;-73
2022/07/23 12:35:15;;;;;;;1.58;0.80;;;21.80;99.90;;;;;;5016842;28;20033;-73
2022/07/23 12:37:42;;;;;;;;;;;22.00;99.90;;;;;;5018476;28;20342;-72
2022/07/23 12:40:23;;;;;;;1.73;0.70;;;22.00;99.90;;;;;;5009054;28;20294;-73
2022/07/23 12:43:13;;;;;;;3.03;0.75;;;21.90;99.90;;;;;;5010288;28;20295;-73
2022/07/23 12:45:54;;;;;;;2.08;0.90;;;21.80;99.90;;;;;;5019353;22;20046;-73
2022/07/23 12:48:37;;;;;;;1.88;0.70;;;21.90;99.90;;;;;;4958067;28;20038;-73
2022/07/23 12:51:08;;;;;;;1.75;0.80;;;21.90;99.90;;;;;;4983855;28;20101;-73
2022/07/23 12:53:42;;;;;;;1.85;0.80;;;21.80;99.90;;;;;;4982648;28;20050;-73
2022/07/23 12:56:29;;;;;;;2.13;0.88;;;21.70;99.90;;;;;;4975844;28;20117;-73
2022/07/23 12:59:06;;;;;;;;;;;21.90;99.90;;;;;;4979812;28;20262;-74